sensor_id;sensor_type;location;lat;lon;timestamp;P1;durP1;ratioP1;P2;durP2;ratioP2
20393;SDS011;10356;50.544;9.642;2024-01-07T00:00:51;62.23;;;29.40;;
20393;SDS011;10356;50.544;9.642;2024-01-07T00:03:19;63.33;;;30.37;;
20393;SDS011;10356;50.544;9.642;2024-01-07T00:05:46;60.40;;;29.77;;
20393;SDS011;10356;50.544;9.642;2024-01-07T00:08:13;58.83;;;29.33;;
20393;SDS011;10356;50.544;9.642;2024-01-07T00:10:39;58.30;;;28.83;;
20393;SDS011;10356;50.544;9.642;2024-01-07T00:13:06;52.87;;;27.27;;
20393;SDS011;10356;50.544;9.642;2024-01-07T00:15:32;58.37;;;29.23;;
20393;SDS011;10356;50.544;9.642;2024-01-07T00:17:59;51.67;;;27.13;;
20393;SDS011;10356;50.544;9.642;2024-01-07T00:20:26;50.43;;;26.40;;
20393;SDS011;10356;50.544;9.642;2024-01-07T00:22:53;50.40;;;25.37;;
20393;SDS011;10356;50.544;9.642;2024-01-07T00:25:19;48.43;;;23.73;;
20393;SDS011;10356;50.544;9.642;2024-01-07T00:27:46;51.07;;;25.83;;
20393;SDS011;10356;50.544;9.642;2024-01-07T00:30:15;53.63;;;26.00;;
20393;SDS011;10356;50.544;9.642;2024-01-07T00:32:42;46.10;;;23.33;;
20393;SDS011;10356;50.544;9.642;2024-01-07T00:35:08;49.93;;;24.47;;
20393;SDS011;10356;50.544;9.642;2024-01-07T00:37:36;45.33;;;22.57;;
20393;SDS011;10356;50.544;9.642;2024-01-07T00:40:03;42.83;;;21.93;;
20393;SDS011;10356;50.544;9.642;2024-01-07T00:42:30;40.17;;;21.23;;
20393;SDS011;10356;50.544;9.642;2024-01-07T00:44:57;43.10;;;20.67;;
20393;SDS011;10356;50.544;9.642;2024-01-07T00:47:23;43.63;;;21.67;;
20393;SDS011;10356;50.544;9.642;2024-01-07T00:49:49;40.33;;;19.37;;
20393;SDS011;10356;50.544;9.642;2024-01-07T00:52:16;39.87;;;20.17;;
20393;SDS011;10356;50.544;9.642;2024-01-07T00:54:44;37.47;;;19.53;;
20393;SDS011;10356;50.544;9.642;2024-01-07T00:57:10;38.77;;;19.93;;
20393;SDS011;10356;50.544;9.642;2024-01-07T00:59:37;42.47;;;21.27;;
20393;SDS011;10356;50.544;9.642;2024-01-07T01:02:04;39.20;;;19.93;;
20393;SDS011;10356;50.544;9.642;2024-01-07T01:04:30;39.60;;;19.63;;
20393;SDS011;10356;50.544;9.642;2024-01-07T01:06:57;39.77;;;19.73;;
20393;SDS011;10356;50.544;9.642;2024-01-07T01:09:23;37.17;;;18.60;;
20393;SDS011;10356;50.544;9.642;2024-01-07T01:11:51;35.50;;;18.50;;
20393;SDS011;10356;50.544;9.642;2024-01-07T01:14:17;36.90;;;19.70;;
20393;SDS011;10356;50.544;9.642;2024-01-07T01:16:44;37.50;;;18.90;;
20393;SDS011;10356;50.544;9.642;2024-01-07T01:19:10;38.63;;;19.13;;
20393;SDS011;10356;50.544;9.642;2024-01-07T01:21:37;36.53;;;19.13;;
20393;SDS011;10356;50.544;9.642;2024-01-07T01:24:03;35.57;;;18.17;;
20393;SDS011;10356;50.544;9.642;2024-01-07T01:26:30;39.90;;;19.63;;
20393;SDS011;10356;50.544;9.642;2024-01-07T01:28:58;37.97;;;18.17;;
20393;SDS011;10356;50.544;9.642;2024-01-07T01:31:24;35.93;;;18.37;;
20393;SDS011;10356;50.544;9.642;2024-01-07T01:33:51;37.07;;;19.07;;
20393;SDS011;10356;50.544;9.642;2024-01-07T01:36:17;37.73;;;18.07;;
20393;SDS011;10356;50.544;9.642;2024-01-07T01:38:44;37.50;;;18.97;;
20393;SDS011;10356;50.544;9.642;2024-01-07T01:41:10;36.93;;;19.30;;
20393;SDS011;10356;50.544;9.642;2024-01-07T01:43:37;35.57;;;19.23;;
20393;SDS011;10356;50.544;9.642;2024-01-07T01:46:04;39.73;;;18.40;;
20393;SDS011;10356;50.544;9.642;2024-01-07T01:48:31;39.17;;;19.43;;
20393;SDS011;10356;50.544;9.642;2024-01-07T01:50:58;39.17;;;19.53;;
20393;SDS011;10356;50.544;9.642;2024-01-07T01:53:25;41.80;;;20.00;;
20393;SDS011;10356;50.544;9.642;2024-01-07T01:55:52;38.87;;;19.57;;
20393;SDS011;10356;50.544;9.642;2024-01-07T01:58:21;40.73;;;19.70;;
20393;SDS011;10356;50.544;9.642;2024-01-07T02:00:49;42.27;;;19.13;;
20393;SDS011;10356;50.544;9.642;2024-01-07T02:03:17;36.53;;;18.17;;
20393;SDS011;10356;50.544;9.642;2024-01-07T02:05:44;35.43;;;18.67;;
20393;SDS011;10356;50.544;9.642;2024-01-07T02:08:11;34.43;;;18.23;;
20393;SDS011;10356;50.544;9.642;2024-01-07T02:10:38;35.13;;;17.83;;
20393;SDS011;10356;50.544;9.642;2024-01-07T02:13:04;37.07;;;18.10;;
20393;SDS011;10356;50.544;9.642;2024-01-07T02:15:31;37.60;;;18.63;;
20393;SDS011;10356;50.544;9.642;2024-01-07T02:17:59;35.20;;;18.97;;
20393;SDS011;10356;50.544;9.642;2024-01-07T02:20:27;33.93;;;17.60;;
20393;SDS011;10356;50.544;9.642;2024-01-07T02:22:54;34.50;;;18.17;;
20393;SDS011;10356;50.544;9.642;2024-01-07T02:25:23;34.33;;;17.40;;
20393;SDS011;10356;50.544;9.642;2024-01-07T02:27:50;30.97;;;17.60;;
20393;SDS011;10356;50.544;9.642;2024-01-07T02:30:17;32.60;;;17.80;;
20393;SDS011;10356;50.544;9.642;2024-01-07T02:32:43;34.47;;;17.60;;
20393;SDS011;10356;50.544;9.642;2024-01-07T02:35:10;33.93;;;17.30;;
20393;SDS011;10356;50.544;9.642;2024-01-07T02:37:36;28.53;;;15.80;;
20393;SDS011;10356;50.544;9.642;2024-01-07T02:40:03;31.70;;;16.03;;
20393;SDS011;10356;50.544;9.642;2024-01-07T02:42:31;27.40;;;14.37;;
20393;SDS011;10356;50.544;9.642;2024-01-07T02:44:58;26.40;;;14.70;;
20393;SDS011;10356;50.544;9.642;2024-01-07T02:47:24;26.30;;;13.63;;
20393;SDS011;10356;50.544;9.642;2024-01-07T02:49:51;27.20;;;13.47;;
20393;SDS011;10356;50.544;9.642;2024-01-07T02:52:17;22.40;;;12.37;;
20393;SDS011;10356;50.544;9.642;2024-01-07T02:54:44;20.80;;;12.70;;
20393;SDS011;10356;50.544;9.642;2024-01-07T02:57:10;21.33;;;12.53;;
20393;SDS011;10356;50.544;9.642;2024-01-07T02:59:38;20.40;;;12.53;;
20393;SDS011;10356;50.544;9.642;2024-01-07T03:02:04;19.87;;;11.87;;
20393;SDS011;10356;50.544;9.642;2024-01-07T03:04:31;21.03;;;12.30;;
20393;SDS011;10356;50.544;9.642;2024-01-07T03:06:57;21.60;;;12.97;;
20393;SDS011;10356;50.544;9.642;2024-01-07T03:09:24;25.97;;;13.50;;
20393;SDS011;10356;50.544;9.642;2024-01-07T03:11:50;27.27;;;15.57;;
20393;SDS011;10356;50.544;9.642;2024-01-07T03:14:17;28.23;;;14.87;;
20393;SDS011;10356;50.544;9.642;2024-01-07T03:16:46;28.20;;;14.63;;
20393;SDS011;10356;50.544;9.642;2024-01-07T03:19:13;27.13;;;15.43;;
20393;SDS011;10356;50.544;9.642;2024-01-07T03:21:39;29.43;;;14.27;;
20393;SDS011;10356;50.544;9.642;2024-01-07T03:24:06;34.23;;;15.63;;
20393;SDS011;10356;50.544;9.642;2024-01-07T03:26:33;31.40;;;14.87;;
20393;SDS011;10356;50.544;9.642;2024-01-07T03:28:59;30.43;;;14.73;;
20393;SDS011;10356;50.544;9.642;2024-01-07T03:31:27;31.93;;;14.60;;
20393;SDS011;10356;50.544;9.642;2024-01-07T03:33:55;29.47;;;14.70;;
20393;SDS011;10356;50.544;9.642;2024-01-07T03:36:21;29.67;;;14.63;;
20393;SDS011;10356;50.544;9.642;2024-01-07T03:38:47;32.50;;;14.57;;
20393;SDS011;10356;50.544;9.642;2024-01-07T03:41:15;26.83;;;13.40;;
20393;SDS011;10356;50.544;9.642;2024-01-07T03:43:42;25.60;;;12.60;;
20393;SDS011;10356;50.544;9.642;2024-01-07T03:46:09;26.33;;;12.93;;
20393;SDS011;10356;50.544;9.642;2024-01-07T03:48:35;27.23;;;13.37;;
20393;SDS011;10356;50.544;9.642;2024-01-07T03:51:03;30.23;;;14.73;;
20393;SDS011;10356;50.544;9.642;2024-01-07T03:53:30;30.47;;;13.70;;
20393;SDS011;10356;50.544;9.642;2024-01-07T03:55:57;24.73;;;12.47;;
20393;SDS011;10356;50.544;9.642;2024-01-07T03:58:23;25.73;;;12.77;;
20393;SDS011;10356;50.544;9.642;2024-01-07T04:00:49;30.17;;;13.93;;
20393;SDS011;10356;50.544;9.642;2024-01-07T04:03:16;27.33;;;13.33;;
20393;SDS011;10356;50.544;9.642;2024-01-07T04:05:43;31.23;;;14.57;;
20393;SDS011;10356;50.544;9.642;2024-01-07T04:08:11;33.50;;;14.37;;
20393;SDS011;10356;50.544;9.642;2024-01-07T04:10:40;27.00;;;14.20;;
20393;SDS011;10356;50.544;9.642;2024-01-07T04:13:07;24.70;;;12.50;;
20393;SDS011;10356;50.544;9.642;2024-01-07T04:15:34;28.47;;;13.73;;
20393;SDS011;10356;50.544;9.642;2024-01-07T04:18:00;28.57;;;13.33;;
20393;SDS011;10356;50.544;9.642;2024-01-07T04:20:28;29.43;;;13.67;;
20393;SDS011;10356;50.544;9.642;2024-01-07T04:22:55;34.70;;;16.00;;
20393;SDS011;10356;50.544;9.642;2024-01-07T04:25:23;28.93;;;14.33;;
20393;SDS011;10356;50.544;9.642;2024-01-07T04:27:49;29.60;;;14.10;;
20393;SDS011;10356;50.544;9.642;2024-01-07T04:30:16;32.90;;;15.73;;
20393;SDS011;10356;50.544;9.642;2024-01-07T04:32:42;31.47;;;15.20;;
20393;SDS011;10356;50.544;9.642;2024-01-07T04:35:09;31.10;;;15.70;;
20393;SDS011;10356;50.544;9.642;2024-01-07T04:37:36;38.67;;;16.00;;
20393;SDS011;10356;50.544;9.642;2024-01-07T04:40:03;31.00;;;14.23;;
20393;SDS011;10356;50.544;9.642;2024-01-07T04:42:32;33.70;;;16.07;;
20393;SDS011;10356;50.544;9.642;2024-01-07T04:44:58;30.43;;;14.67;;
20393;SDS011;10356;50.544;9.642;2024-01-07T04:47:26;30.47;;;15.63;;
20393;SDS011;10356;50.544;9.642;2024-01-07T04:49:53;34.93;;;16.53;;
20393;SDS011;10356;50.544;9.642;2024-01-07T04:52:21;38.93;;;17.67;;
20393;SDS011;10356;50.544;9.642;2024-01-07T04:54:48;36.97;;;17.60;;
20393;SDS011;10356;50.544;9.642;2024-01-07T04:57:14;36.10;;;18.13;;
20393;SDS011;10356;50.544;9.642;2024-01-07T04:59:42;37.80;;;17.00;;
20393;SDS011;10356;50.544;9.642;2024-01-07T05:02:09;36.47;;;18.30;;
20393;SDS011;10356;50.544;9.642;2024-01-07T05:04:36;38.80;;;17.77;;
20393;SDS011;10356;50.544;9.642;2024-01-07T05:07:03;35.97;;;18.10;;
20393;SDS011;10356;50.544;9.642;2024-01-07T05:09:30;34.10;;;17.50;;
20393;SDS011;10356;50.544;9.642;2024-01-07T05:11:57;33.23;;;17.33;;
20393;SDS011;10356;50.544;9.642;2024-01-07T05:14:24;33.23;;;17.23;;
20393;SDS011;10356;50.544;9.642;2024-01-07T05:16:52;31.50;;;17.90;;
20393;SDS011;10356;50.544;9.642;2024-01-07T05:19:19;32.40;;;16.77;;
20393;SDS011;10356;50.544;9.642;2024-01-07T05:21:45;27.50;;;15.93;;
20393;SDS011;10356;50.544;9.642;2024-01-07T05:24:12;26.90;;;15.50;;
20393;SDS011;10356;50.544;9.642;2024-01-07T05:26:38;23.60;;;15.00;;
20393;SDS011;10356;50.544;9.642;2024-01-07T05:29:05;24.10;;;15.53;;
20393;SDS011;10356;50.544;9.642;2024-01-07T05:31:32;26.10;;;14.60;;
20393;SDS011;10356;50.544;9.642;2024-01-07T05:33:59;20.70;;;13.17;;
20393;SDS011;10356;50.544;9.642;2024-01-07T05:36:26;20.20;;;13.20;;
20393;SDS011;10356;50.544;9.642;2024-01-07T05:38:52;22.73;;;13.53;;
20393;SDS011;10356;50.544;9.642;2024-01-07T05:41:19;17.47;;;11.67;;
20393;SDS011;10356;50.544;9.642;2024-01-07T05:43:45;20.73;;;12.53;;
20393;SDS011;10356;50.544;9.642;2024-01-07T05:46:12;20.40;;;12.70;;
20393;SDS011;10356;50.544;9.642;2024-01-07T05:48:42;17.83;;;11.57;;
20393;SDS011;10356;50.544;9.642;2024-01-07T05:51:11;18.13;;;11.70;;
20393;SDS011;10356;50.544;9.642;2024-01-07T05:53:38;18.00;;;12.03;;
20393;SDS011;10356;50.544;9.642;2024-01-07T05:56:05;15.27;;;10.43;;
20393;SDS011;10356;50.544;9.642;2024-01-07T05:58:32;17.03;;;10.90;;
20393;SDS011;10356;50.544;9.642;2024-01-07T06:00:58;16.63;;;11.67;;
20393;SDS011;10356;50.544;9.642;2024-01-07T06:03:25;12.80;;;9.17;;
20393;SDS011;10356;50.544;9.642;2024-01-07T06:05:52;13.73;;;9.57;;
20393;SDS011;10356;50.544;9.642;2024-01-07T06:08:19;12.53;;;8.77;;
20393;SDS011;10356;50.544;9.642;2024-01-07T06:10:46;13.27;;;8.90;;
20393;SDS011;10356;50.544;9.642;2024-01-07T06:13:13;14.27;;;9.03;;
20393;SDS011;10356;50.544;9.642;2024-01-07T06:15:39;12.57;;;9.33;;
20393;SDS011;10356;50.544;9.642;2024-01-07T06:18:06;13.13;;;8.90;;
20393;SDS011;10356;50.544;9.642;2024-01-07T06:20:32;14.07;;;9.00;;
20393;SDS011;10356;50.544;9.642;2024-01-07T06:22:59;14.40;;;9.13;;
20393;SDS011;10356;50.544;9.642;2024-01-07T06:25:27;12.03;;;7.77;;
20393;SDS011;10356;50.544;9.642;2024-01-07T06:27:53;11.43;;;7.73;;
20393;SDS011;10356;50.544;9.642;2024-01-07T06:30:20;10.27;;;7.70;;
20393;SDS011;10356;50.544;9.642;2024-01-07T06:32:46;12.37;;;7.73;;
20393;SDS011;10356;50.544;9.642;2024-01-07T06:35:13;13.20;;;8.40;;
20393;SDS011;10356;50.544;9.642;2024-01-07T06:37:40;14.60;;;8.60;;
20393;SDS011;10356;50.544;9.642;2024-01-07T06:40:07;12.67;;;8.23;;
20393;SDS011;10356;50.544;9.642;2024-01-07T06:42:35;13.63;;;8.63;;
20393;SDS011;10356;50.544;9.642;2024-01-07T06:45:02;13.37;;;8.67;;
20393;SDS011;10356;50.544;9.642;2024-01-07T06:47:28;14.30;;;8.87;;
20393;SDS011;10356;50.544;9.642;2024-01-07T06:49:55;13.43;;;8.40;;
20393;SDS011;10356;50.544;9.642;2024-01-07T06:52:21;14.07;;;9.63;;
20393;SDS011;10356;50.544;9.642;2024-01-07T06:54:48;12.23;;;8.47;;
20393;SDS011;10356;50.544;9.642;2024-01-07T06:57:14;13.83;;;9.27;;
20393;SDS011;10356;50.544;9.642;2024-01-07T06:59:42;13.93;;;10.00;;
20393;SDS011;10356;50.544;9.642;2024-01-07T07:02:08;14.10;;;10.00;;
20393;SDS011;10356;50.544;9.642;2024-01-07T07:04:35;14.43;;;9.43;;
20393;SDS011;10356;50.544;9.642;2024-01-07T07:07:02;13.50;;;9.33;;
20393;SDS011;10356;50.544;9.642;2024-01-07T07:09:28;14.93;;;10.03;;
20393;SDS011;10356;50.544;9.642;2024-01-07T07:11:55;15.33;;;10.17;;
20393;SDS011;10356;50.544;9.642;2024-01-07T07:14:21;16.10;;;10.57;;
20393;SDS011;10356;50.544;9.642;2024-01-07T07:16:49;15.83;;;9.67;;
20393;SDS011;10356;50.544;9.642;2024-01-07T07:19:15;16.67;;;10.83;;
20393;SDS011;10356;50.544;9.642;2024-01-07T07:21:43;15.17;;;10.53;;
20393;SDS011;10356;50.544;9.642;2024-01-07T07:24:10;14.63;;;10.47;;
20393;SDS011;10356;50.544;9.642;2024-01-07T07:26:36;12.67;;;9.50;;
20393;SDS011;10356;50.544;9.642;2024-01-07T07:29:05;16.60;;;10.60;;
20393;SDS011;10356;50.544;9.642;2024-01-07T07:31:34;15.80;;;10.87;;
20393;SDS011;10356;50.544;9.642;2024-01-07T07:34:02;15.80;;;10.43;;
20393;SDS011;10356;50.544;9.642;2024-01-07T07:36:29;18.73;;;11.33;;
20393;SDS011;10356;50.544;9.642;2024-01-07T07:38:55;15.13;;;10.63;;
20393;SDS011;10356;50.544;9.642;2024-01-07T07:41:22;16.43;;;10.00;;
20393;SDS011;10356;50.544;9.642;2024-01-07T07:43:48;12.13;;;9.07;;
20393;SDS011;10356;50.544;9.642;2024-01-07T07:46:15;15.13;;;9.70;;
20393;SDS011;10356;50.544;9.642;2024-01-07T07:48:42;13.40;;;9.20;;
20393;SDS011;10356;50.544;9.642;2024-01-07T07:51:09;17.07;;;9.80;;
20393;SDS011;10356;50.544;9.642;2024-01-07T07:53:37;14.70;;;9.90;;
20393;SDS011;10356;50.544;9.642;2024-01-07T07:56:05;12.77;;;8.80;;
20393;SDS011;10356;50.544;9.642;2024-01-07T07:58:32;11.77;;;8.03;;
20393;SDS011;10356;50.544;9.642;2024-01-07T08:00:58;12.70;;;8.47;;
20393;SDS011;10356;50.544;9.642;2024-01-07T08:03:25;15.27;;;9.97;;
20393;SDS011;10356;50.544;9.642;2024-01-07T08:05:52;11.00;;;8.27;;
20393;SDS011;10356;50.544;9.642;2024-01-07T08:08:20;12.43;;;8.57;;
20393;SDS011;10356;50.544;9.642;2024-01-07T08:10:46;14.03;;;11.67;;
20393;SDS011;10356;50.544;9.642;2024-01-07T08:13:13;15.67;;;10.80;;
20393;SDS011;10356;50.544;9.642;2024-01-07T08:15:39;13.17;;;9.30;;
20393;SDS011;10356;50.544;9.642;2024-01-07T08:18:06;13.53;;;8.87;;
20393;SDS011;10356;50.544;9.642;2024-01-07T08:20:32;11.03;;;7.20;;
20393;SDS011;10356;50.544;9.642;2024-01-07T08:22:59;13.17;;;8.37;;
20393;SDS011;10356;50.544;9.642;2024-01-07T08:25:27;15.13;;;8.07;;
20393;SDS011;10356;50.544;9.642;2024-01-07T08:27:53;11.93;;;7.73;;
20393;SDS011;10356;50.544;9.642;2024-01-07T08:30:20;14.70;;;8.30;;
20393;SDS011;10356;50.544;9.642;2024-01-07T08:32:46;12.13;;;8.03;;
20393;SDS011;10356;50.544;9.642;2024-01-07T08:35:12;13.87;;;8.10;;
20393;SDS011;10356;50.544;9.642;2024-01-07T08:37:38;12.63;;;8.00;;
20393;SDS011;10356;50.544;9.642;2024-01-07T08:40:05;14.73;;;8.27;;
20393;SDS011;10356;50.544;9.642;2024-01-07T08:42:36;14.63;;;8.90;;
20393;SDS011;10356;50.544;9.642;2024-01-07T08:45:02;12.83;;;8.10;;
20393;SDS011;10356;50.544;9.642;2024-01-07T08:47:30;12.30;;;7.83;;
20393;SDS011;10356;50.544;9.642;2024-01-07T08:49:56;14.97;;;7.77;;
20393;SDS011;10356;50.544;9.642;2024-01-07T08:52:23;13.27;;;7.60;;
20393;SDS011;10356;50.544;9.642;2024-01-07T08:54:49;12.53;;;7.43;;
20393;SDS011;10356;50.544;9.642;2024-01-07T08:57:16;14.33;;;8.53;;
20393;SDS011;10356;50.544;9.642;2024-01-07T08:59:44;15.30;;;9.20;;
20393;SDS011;10356;50.544;9.642;2024-01-07T09:02:11;13.97;;;8.00;;
20393;SDS011;10356;50.544;9.642;2024-01-07T09:04:38;15.80;;;8.53;;
20393;SDS011;10356;50.544;9.642;2024-01-07T09:07:05;17.23;;;8.20;;
20393;SDS011;10356;50.544;9.642;2024-01-07T09:09:31;13.53;;;7.10;;
20393;SDS011;10356;50.544;9.642;2024-01-07T09:11:58;14.83;;;8.37;;
20393;SDS011;10356;50.544;9.642;2024-01-07T09:14:25;13.60;;;7.90;;
20393;SDS011;10356;50.544;9.642;2024-01-07T09:16:53;17.47;;;7.77;;
20393;SDS011;10356;50.544;9.642;2024-01-07T09:19:19;11.93;;;7.67;;
20393;SDS011;10356;50.544;9.642;2024-01-07T09:21:46;10.30;;;6.27;;
20393;SDS011;10356;50.544;9.642;2024-01-07T09:24:13;14.17;;;7.40;;
20393;SDS011;10356;50.544;9.642;2024-01-07T09:26:40;15.13;;;7.80;;
20393;SDS011;10356;50.544;9.642;2024-01-07T09:29:06;13.47;;;7.87;;
20393;SDS011;10356;50.544;9.642;2024-01-07T09:31:33;11.97;;;7.10;;
20393;SDS011;10356;50.544;9.642;2024-01-07T09:34:01;15.13;;;7.67;;
20393;SDS011;10356;50.544;9.642;2024-01-07T09:36:28;15.63;;;8.73;;
20393;SDS011;10356;50.544;9.642;2024-01-07T09:38:55;13.43;;;8.83;;
20393;SDS011;10356;50.544;9.642;2024-01-07T09:41:22;14.23;;;8.67;;
20393;SDS011;10356;50.544;9.642;2024-01-07T09:43:48;13.07;;;8.63;;
20393;SDS011;10356;50.544;9.642;2024-01-07T09:46:16;25.20;;;13.00;;
20393;SDS011;10356;50.544;9.642;2024-01-07T09:48:42;16.00;;;10.90;;
20393;SDS011;10356;50.544;9.642;2024-01-07T09:51:10;15.63;;;9.27;;
20393;SDS011;10356;50.544;9.642;2024-01-07T09:53:38;13.47;;;9.00;;
20393;SDS011;10356;50.544;9.642;2024-01-07T09:56:07;13.47;;;8.30;;
20393;SDS011;10356;50.544;9.642;2024-01-07T09:58:39;14.87;;;8.53;;
20393;SDS011;10356;50.544;9.642;2024-01-07T10:01:07;16.77;;;9.97;;
20393;SDS011;10356;50.544;9.642;2024-01-07T10:03:34;16.50;;;9.90;;
20393;SDS011;10356;50.544;9.642;2024-01-07T10:06:01;15.20;;;9.07;;
20393;SDS011;10356;50.544;9.642;2024-01-07T10:08:29;18.20;;;9.17;;
20393;SDS011;10356;50.544;9.642;2024-01-07T10:10:55;15.57;;;9.27;;
20393;SDS011;10356;50.544;9.642;2024-01-07T10:13:22;15.30;;;10.13;;
20393;SDS011;10356;50.544;9.642;2024-01-07T10:15:48;15.87;;;10.47;;
20393;SDS011;10356;50.544;9.642;2024-01-07T10:18:15;20.23;;;12.57;;
20393;SDS011;10356;50.544;9.642;2024-01-07T10:20:41;21.13;;;16.37;;
20393;SDS011;10356;50.544;9.642;2024-01-07T10:23:08;15.30;;;10.47;;
20393;SDS011;10356;50.544;9.642;2024-01-07T10:25:36;15.23;;;10.80;;
20393;SDS011;10356;50.544;9.642;2024-01-07T10:28:03;15.93;;;9.93;;
20393;SDS011;10356;50.544;9.642;2024-01-07T10:30:30;16.50;;;11.20;;
20393;SDS011;10356;50.544;9.642;2024-01-07T10:32:57;18.03;;;9.77;;
20393;SDS011;10356;50.544;9.642;2024-01-07T10:35:27;17.50;;;10.30;;
20393;SDS011;10356;50.544;9.642;2024-01-07T10:37:54;18.47;;;11.13;;
20393;SDS011;10356;50.544;9.642;2024-01-07T10:40:21;14.43;;;10.63;;
20393;SDS011;10356;50.544;9.642;2024-01-07T10:42:49;17.43;;;11.70;;
20393;SDS011;10356;50.544;9.642;2024-01-07T10:45:16;17.33;;;10.33;;
20393;SDS011;10356;50.544;9.642;2024-01-07T10:47:43;17.37;;;9.00;;
20393;SDS011;10356;50.544;9.642;2024-01-07T10:50:14;17.83;;;9.07;;
20393;SDS011;10356;50.544;9.642;2024-01-07T10:52:42;15.83;;;9.00;;
20393;SDS011;10356;50.544;9.642;2024-01-07T10:55:09;14.93;;;9.27;;
20393;SDS011;10356;50.544;9.642;2024-01-07T10:57:38;13.37;;;8.43;;
20393;SDS011;10356;50.544;9.642;2024-01-07T11:00:11;14.10;;;8.43;;
20393;SDS011;10356;50.544;9.642;2024-01-07T11:02:46;17.67;;;9.63;;
20393;SDS011;10356;50.544;9.642;2024-01-07T11:05:20;18.57;;;9.43;;
20393;SDS011;10356;50.544;9.642;2024-01-07T11:07:54;12.83;;;7.30;;
20393;SDS011;10356;50.544;9.642;2024-01-07T11:10:29;11.80;;;7.40;;
20393;SDS011;10356;50.544;9.642;2024-01-07T11:13:01;13.70;;;7.90;;
20393;SDS011;10356;50.544;9.642;2024-01-07T11:18:22;12.37;;;5.73;;
20393;SDS011;10356;50.544;9.642;2024-01-07T11:20:49;13.57;;;6.47;;
20393;SDS011;10356;50.544;9.642;2024-01-07T11:23:25;9.40;;;5.30;;
20393;SDS011;10356;50.544;9.642;2024-01-07T11:25:54;12.30;;;6.70;;
20393;SDS011;10356;50.544;9.642;2024-01-07T11:31:11;98.63;;;49.63;;
20393;SDS011;10356;50.544;9.642;2024-01-07T11:33:38;121.00;;;65.50;;
20393;SDS011;10356;50.544;9.642;2024-01-07T11:36:05;20.90;;;14.43;;
20393;SDS011;10356;50.544;9.642;2024-01-07T11:38:33;15.03;;;7.63;;
20393;SDS011;10356;50.544;9.642;2024-01-07T11:41:00;38.83;;;26.10;;
20393;SDS011;10356;50.544;9.642;2024-01-07T11:43:29;24.50;;;19.40;;
20393;SDS011;10356;50.544;9.642;2024-01-07T11:45:56;10.03;;;6.30;;
20393;SDS011;10356;50.544;9.642;2024-01-07T11:48:24;9.80;;;6.23;;
20393;SDS011;10356;50.544;9.642;2024-01-07T11:50:50;11.30;;;6.17;;
20393;SDS011;10356;50.544;9.642;2024-01-07T11:53:17;10.37;;;6.37;;
20393;SDS011;10356;50.544;9.642;2024-01-07T11:55:43;11.70;;;5.60;;
20393;SDS011;10356;50.544;9.642;2024-01-07T11:58:10;10.07;;;5.40;;
20393;SDS011;10356;50.544;9.642;2024-01-07T12:00:37;8.67;;;5.40;;
20393;SDS011;10356;50.544;9.642;2024-01-07T12:03:03;6.67;;;4.73;;
20393;SDS011;10356;50.544;9.642;2024-01-07T12:05:31;8.17;;;5.77;;
20393;SDS011;10356;50.544;9.642;2024-01-07T12:07:59;7.03;;;4.90;;
20393;SDS011;10356;50.544;9.642;2024-01-07T12:10:26;5.93;;;4.40;;
20393;SDS011;10356;50.544;9.642;2024-01-07T12:12:53;6.60;;;3.87;;
20393;SDS011;10356;50.544;9.642;2024-01-07T12:15:20;5.50;;;4.67;;
20393;SDS011;10356;50.544;9.642;2024-01-07T12:17:54;6.87;;;4.53;;
20393;SDS011;10356;50.544;9.642;2024-01-07T12:20:22;7.77;;;4.87;;
20393;SDS011;10356;50.544;9.642;2024-01-07T12:22:50;8.77;;;4.53;;
20393;SDS011;10356;50.544;9.642;2024-01-07T12:25:20;4.67;;;3.40;;
20393;SDS011;10356;50.544;9.642;2024-01-07T12:27:48;8.17;;;3.90;;
20393;SDS011;10356;50.544;9.642;2024-01-07T12:30:17;6.47;;;4.37;;
20393;SDS011;10356;50.544;9.642;2024-01-07T12:32:44;9.17;;;5.13;;
20393;SDS011;10356;50.544;9.642;2024-01-07T12:35:11;6.63;;;3.60;;
20393;SDS011;10356;50.544;9.642;2024-01-07T12:37:38;5.70;;;3.67;;
20393;SDS011;10356;50.544;9.642;2024-01-07T12:40:06;6.33;;;3.10;;
20393;SDS011;10356;50.544;9.642;2024-01-07T12:42:36;7.43;;;5.10;;
20393;SDS011;10356;50.544;9.642;2024-01-07T12:45:05;5.23;;;3.30;;
20393;SDS011;10356;50.544;9.642;2024-01-07T12:47:32;4.83;;;3.80;;
20393;SDS011;10356;50.544;9.642;2024-01-07T12:49:59;3.27;;;2.80;;
20393;SDS011;10356;50.544;9.642;2024-01-07T12:52:25;3.53;;;3.13;;
20393;SDS011;10356;50.544;9.642;2024-01-07T12:54:53;4.67;;;3.07;;
20393;SDS011;10356;50.544;9.642;2024-01-07T12:57:22;3.77;;;2.73;;
20393;SDS011;10356;50.544;9.642;2024-01-07T12:59:49;6.33;;;2.90;;
20393;SDS011;10356;50.544;9.642;2024-01-07T13:02:15;3.27;;;2.60;;
20393;SDS011;10356;50.544;9.642;2024-01-07T13:04:42;3.40;;;2.60;;
20393;SDS011;10356;50.544;9.642;2024-01-07T13:07:12;5.10;;;2.73;;
20393;SDS011;10356;50.544;9.642;2024-01-07T13:09:39;3.97;;;2.37;;
20393;SDS011;10356;50.544;9.642;2024-01-07T13:12:05;2.83;;;2.37;;
20393;SDS011;10356;50.544;9.642;2024-01-07T13:14:33;4.47;;;2.87;;
20393;SDS011;10356;50.544;9.642;2024-01-07T13:17:00;3.60;;;2.10;;
20393;SDS011;10356;50.544;9.642;2024-01-07T13:19:27;3.17;;;2.33;;
20393;SDS011;10356;50.544;9.642;2024-01-07T13:21:55;2.93;;;2.10;;
20393;SDS011;10356;50.544;9.642;2024-01-07T13:24:23;2.93;;;2.50;;
20393;SDS011;10356;50.544;9.642;2024-01-07T13:26:50;3.00;;;2.30;;
20393;SDS011;10356;50.544;9.642;2024-01-07T13:29:17;3.63;;;2.60;;
20393;SDS011;10356;50.544;9.642;2024-01-07T13:31:45;4.43;;;2.70;;
20393;SDS011;10356;50.544;9.642;2024-01-07T13:34:11;4.20;;;2.10;;
20393;SDS011;10356;50.544;9.642;2024-01-07T13:36:39;3.60;;;3.10;;
20393;SDS011;10356;50.544;9.642;2024-01-07T13:39:07;3.40;;;1.90;;
20393;SDS011;10356;50.544;9.642;2024-01-07T13:41:33;4.47;;;2.40;;
20393;SDS011;10356;50.544;9.642;2024-01-07T13:44:00;2.70;;;2.30;;
20393;SDS011;10356;50.544;9.642;2024-01-07T13:46:28;2.13;;;1.93;;
20393;SDS011;10356;50.544;9.642;2024-01-07T13:48:55;2.83;;;1.87;;
20393;SDS011;10356;50.544;9.642;2024-01-07T13:51:22;4.30;;;1.43;;
20393;SDS011;10356;50.544;9.642;2024-01-07T13:53:48;2.67;;;1.70;;
20393;SDS011;10356;50.544;9.642;2024-01-07T13:56:15;3.13;;;1.93;;
20393;SDS011;10356;50.544;9.642;2024-01-07T13:58:41;2.40;;;1.67;;
20393;SDS011;10356;50.544;9.642;2024-01-07T14:01:11;2.43;;;1.60;;
20393;SDS011;10356;50.544;9.642;2024-01-07T14:03:38;2.83;;;1.63;;
20393;SDS011;10356;50.544;9.642;2024-01-07T14:06:06;1.53;;;1.23;;
20393;SDS011;10356;50.544;9.642;2024-01-07T14:08:32;4.27;;;2.00;;
20393;SDS011;10356;50.544;9.642;2024-01-07T14:10:59;2.57;;;1.83;;
20393;SDS011;10356;50.544;9.642;2024-01-07T14:13:26;4.47;;;2.30;;
20393;SDS011;10356;50.544;9.642;2024-01-07T14:15:53;2.77;;;1.90;;
20393;SDS011;10356;50.544;9.642;2024-01-07T14:18:20;2.33;;;1.40;;
20393;SDS011;10356;50.544;9.642;2024-01-07T14:20:47;2.47;;;1.40;;
20393;SDS011;10356;50.544;9.642;2024-01-07T14:23:15;3.03;;;2.10;;
20393;SDS011;10356;50.544;9.642;2024-01-07T14:25:43;2.03;;;1.57;;
20393;SDS011;10356;50.544;9.642;2024-01-07T14:28:09;2.60;;;1.73;;
20393;SDS011;10356;50.544;9.642;2024-01-07T14:30:36;4.37;;;2.20;;
20393;SDS011;10356;50.544;9.642;2024-01-07T14:33:01;1.83;;;1.33;;
20393;SDS011;10356;50.544;9.642;2024-01-07T14:35:28;2.13;;;1.80;;